createdAt,value
2023-07-19T00:02:24.296Z,19.44
2023-07-19T00:07:25.861Z,19.29
2023-07-19T00:17:29.414Z,19.00
2023-07-19T00:22:32.073Z,19.09
2023-07-19T00:27:33.968Z,19.03
2023-07-19T00:32:35.815Z,19.03
2023-07-19T00:37:37.313Z,19.03
2023-07-19T00:42:38.827Z,19.16
2023-07-19T00:47:40.786Z,19.07
2023-07-19T00:52:42.892Z,18.77
2023-07-19T00:57:44.524Z,18.78
2023-07-19T01:02:46.174Z,18.72
2023-07-19T01:07:47.833Z,18.79
2023-07-19T01:13:09.263Z,18.91
2023-07-19T01:18:10.837Z,18.57
2023-07-19T01:23:13.172Z,18.56
2023-07-19T01:28:16.201Z,18.60
2023-07-19T01:33:28.470Z,18.61
2023-07-19T01:38:36.236Z,18.67
2023-07-19T01:43:37.843Z,18.52
2023-07-19T01:48:39.371Z,18.40
2023-07-19T01:53:40.873Z,18.33
2023-07-19T01:58:44.270Z,18.37
2023-07-19T02:03:45.764Z,18.16
2023-07-19T02:08:48.209Z,18.38
2023-07-19T02:13:49.871Z,18.33
2023-07-19T02:18:51.370Z,18.18
2023-07-19T02:23:52.847Z,18.20
2023-07-19T02:28:55.783Z,18.26
2023-07-19T02:33:57.308Z,18.61
2023-07-19T02:38:58.817Z,18.75
2023-07-19T02:44:00.583Z,19.10
2023-07-19T02:49:02.191Z,18.94
2023-07-19T02:54:03.724Z,18.96
2023-07-19T02:59:06.191Z,18.76
2023-07-19T03:04:07.975Z,18.69
2023-07-19T03:09:12.030Z,18.63
2023-07-19T03:14:13.564Z,18.63
2023-07-19T03:19:15.104Z,18.63
2023-07-19T03:24:17.224Z,18.54
2023-07-19T03:29:18.704Z,18.56
2023-07-19T03:34:20.448Z,18.61
2023-07-19T03:39:21.990Z,18.60
2023-07-19T03:44:23.536Z,18.63
2023-07-19T03:49:26.376Z,18.66
2023-07-19T03:54:28.017Z,18.55
2023-07-19T03:59:31.087Z,18.64
2023-07-19T04:04:32.763Z,18.41
2023-07-19T04:09:34.380Z,18.52
2023-07-19T04:14:35.933Z,18.60
2023-07-19T04:19:37.612Z,18.61
2023-07-19T04:24:39.647Z,18.53
2023-07-19T04:29:41.331Z,18.79
2023-07-19T04:34:42.860Z,18.86
2023-07-19T04:39:44.807Z,18.96
2023-07-19T04:44:47.460Z,19.05
2023-07-19T04:49:49.017Z,19.15
2023-07-19T04:54:51.095Z,19.35
2023-07-19T04:59:52.712Z,19.51
2023-07-19T05:04:54.473Z,19.37
2023-07-19T05:09:56.165Z,19.27
2023-07-19T05:14:57.924Z,19.26
2023-07-19T05:19:59.958Z,19.21
2023-07-19T05:25:04.421Z,19.28
2023-07-19T05:30:06.548Z,19.24
2023-07-19T05:35:08.133Z,19.48
2023-07-19T05:40:10.701Z,19.49
2023-07-19T05:45:12.197Z,19.98
2023-07-19T05:50:13.729Z,19.60
2023-07-19T05:55:16.199Z,19.74
2023-07-19T06:00:30.020Z,19.69
2023-07-19T06:05:31.677Z,19.62
2023-07-19T06:10:33.176Z,19.68
2023-07-19T06:15:34.826Z,19.68
2023-07-19T06:20:36.809Z,19.76
2023-07-19T06:25:38.676Z,19.79
2023-07-19T06:30:40.201Z,19.89
2023-07-19T06:35:41.836Z,20.16
2023-07-19T06:40:43.361Z,20.07
2023-07-19T06:45:48.664Z,20.22
2023-07-19T06:50:51.011Z,20.26
2023-07-19T06:55:58.793Z,20.23
2023-07-19T07:01:00.397Z,20.48
2023-07-19T07:06:04.064Z,20.38
2023-07-19T07:11:05.926Z,20.54
2023-07-19T07:16:07.799Z,20.37
2023-07-19T07:21:09.919Z,19.85
2023-07-19T07:26:11.379Z,19.65
2023-07-19T07:31:13.140Z,19.48
2023-07-19T07:36:15.053Z,19.34
2023-07-19T07:41:17.406Z,19.46
2023-07-19T07:46:18.901Z,19.43
2023-07-19T07:51:20.823Z,19.48
2023-07-19T07:56:24.606Z,19.57
2023-07-19T08:01:26.525Z,19.60
2023-07-19T08:06:28.216Z,19.85
2023-07-19T08:11:29.892Z,20.05
2023-07-19T08:16:31.470Z,20.07
2023-07-19T08:21:36.732Z,19.98
2023-07-19T08:26:39.512Z,19.84
2023-07-19T08:31:40.998Z,19.84
2023-07-19T08:36:42.495Z,20.05
2023-07-19T08:41:44.650Z,20.12
2023-07-19T08:46:47.399Z,19.98
2023-07-19T08:51:49.071Z,19.71
2023-07-19T08:56:50.913Z,20.02
2023-07-19T09:01:52.945Z,20.16
2023-07-19T09:06:54.466Z,20.09
2023-07-19T09:11:55.913Z,20.05
2023-07-19T09:16:57.376Z,20.53
2023-07-19T09:22:04.663Z,21.09
2023-07-19T09:27:06.334Z,21.28
2023-07-19T09:32:08.540Z,21.48
2023-07-19T09:37:11.162Z,21.71
2023-07-19T09:42:14.555Z,21.81
2023-07-19T09:47:28.284Z,21.98
2023-07-19T09:52:36.903Z,22.07
2023-07-19T09:57:41.156Z,22.57
2023-07-19T10:02:42.801Z,22.80
2023-07-19T10:07:51.868Z,22.83
2023-07-19T10:12:54.003Z,23.22
2023-07-19T10:17:57.477Z,23.23
2023-07-19T10:23:09.540Z,23.76
2023-07-19T10:28:13.745Z,23.59
2023-07-19T10:33:20.383Z,23.29
2023-07-19T10:38:26.939Z,23.44
2023-07-19T10:43:46.904Z,23.52
2023-07-19T10:48:53.571Z,23.48
2023-07-19T10:53:59.171Z,23.61
2023-07-19T10:59:02.037Z,24.09
2023-07-19T11:04:08.355Z,23.81
2023-07-19T11:09:10.631Z,24.06
2023-07-19T11:14:28.104Z,23.80
2023-07-19T11:19:47.881Z,23.77
2023-07-19T11:24:53.978Z,23.90
2023-07-19T11:29:55.917Z,24.07
2023-07-19T11:35:01.784Z,24.32
2023-07-19T11:40:06.677Z,24.57
2023-07-19T11:45:20.143Z,24.76
2023-07-19T11:50:24.597Z,24.90
2023-07-19T11:55:26.435Z,24.94
2023-07-19T12:00:28.371Z,24.82
2023-07-19T12:05:30.300Z,24.80
2023-07-19T12:10:31.923Z,25.38
2023-07-19T12:15:33.457Z,25.34
2023-07-19T12:20:35.041Z,25.65
2023-07-19T12:25:36.572Z,25.77
2023-07-19T12:30:38.674Z,25.75
2023-07-19T12:35:40.644Z,25.84
2023-07-19T12:40:43.065Z,25.81
2023-07-19T12:45:44.846Z,25.37
2023-07-19T12:50:46.492Z,25.46
2023-07-19T12:55:47.994Z,25.63
2023-07-19T13:00:49.777Z,25.66
2023-07-19T13:05:51.329Z,26.06
2023-07-19T13:10:52.878Z,25.66
2023-07-19T13:15:54.364Z,25.12
2023-07-19T13:20:57.143Z,25.55
2023-07-19T13:25:58.887Z,25.53
2023-07-19T13:31:01.339Z,26.01
2023-07-19T13:36:03.057Z,25.86
2023-07-19T13:41:04.686Z,25.44
2023-07-19T13:46:06.224Z,25.42
2023-07-19T13:51:07.768Z,25.31
2023-07-19T13:56:09.649Z,25.41
2023-07-19T14:01:13.052Z,25.04
2023-07-19T14:06:17.317Z,24.58
2023-07-19T14:11:18.855Z,24.42
2023-07-19T14:16:20.423Z,24.13
2023-07-19T14:21:22.795Z,24.64
2023-07-19T14:26:25.005Z,24.48
2023-07-19T14:31:26.999Z,24.70
2023-07-19T14:36:28.687Z,24.84
2023-07-19T14:41:30.895Z,25.22
2023-07-19T14:46:34.408Z,25.18
2023-07-19T14:51:36.507Z,25.11
2023-07-19T14:56:38.077Z,25.11
2023-07-19T15:01:39.845Z,24.93
2023-07-19T15:06:42.913Z,25.08
2023-07-19T15:11:46.351Z,24.80
2023-07-19T15:16:49.803Z,24.94
2023-07-19T15:21:51.409Z,24.76
2023-07-19T15:26:53.695Z,24.91
2023-07-19T15:31:56.728Z,25.52
2023-07-19T15:36:58.371Z,25.18
2023-07-19T15:42:00.659Z,24.30
2023-07-19T15:47:03.424Z,24.16
2023-07-19T15:52:07.203Z,23.80
2023-07-19T15:57:08.725Z,23.03
2023-07-19T16:02:10.563Z,22.84
2023-07-19T16:07:14.412Z,22.98
2023-07-19T16:12:16.138Z,23.11
2023-07-19T16:17:17.656Z,23.51
2023-07-19T16:22:19.166Z,23.74
2023-07-19T16:27:20.664Z,23.86
2023-07-19T16:32:22.236Z,24.00
2023-07-19T16:37:23.899Z,23.86
2023-07-19T16:42:25.663Z,23.82
2023-07-19T16:47:28.703Z,23.84
2023-07-19T16:52:30.505Z,23.62
2023-07-19T16:57:32.141Z,23.46
2023-07-19T17:02:33.707Z,23.41
2023-07-19T17:07:35.376Z,23.45
2023-07-19T17:12:36.993Z,23.69
2023-07-19T17:17:38.826Z,23.60
2023-07-19T17:22:41.202Z,23.21
2023-07-19T17:27:42.866Z,23.21
2023-07-19T17:32:46.618Z,23.38
2023-07-19T17:37:50.178Z,23.21
2023-07-19T17:42:51.777Z,23.23
2023-07-19T17:47:53.300Z,23.10
2023-07-19T17:52:55.183Z,22.68
2023-07-19T17:57:57.990Z,22.68
2023-07-19T18:02:59.740Z,22.92
2023-07-19T18:08:15.802Z,22.64
2023-07-19T18:13:21.994Z,22.74
2023-07-19T18:18:23.734Z,22.69
2023-07-19T18:23:26.163Z,22.73
2023-07-19T18:28:27.731Z,22.82
2023-07-19T18:33:29.505Z,22.40
2023-07-19T18:38:31.368Z,22.57
2023-07-19T18:43:33.094Z,22.37
2023-07-19T18:48:34.850Z,22.41
2023-07-19T18:53:37.277Z,22.24
2023-07-19T18:58:38.803Z,22.39
2023-07-19T19:03:40.452Z,22.18
2023-07-19T19:08:42.151Z,22.06
2023-07-19T19:13:43.854Z,22.02
2023-07-19T19:18:45.523Z,21.96
2023-07-19T19:23:47.128Z,22.08
2023-07-19T19:28:48.662Z,21.90
2023-07-19T19:33:50.211Z,21.96
2023-07-19T19:38:51.833Z,21.79
2023-07-19T19:43:53.496Z,21.94
2023-07-19T19:48:55.171Z,21.91
2023-07-19T19:53:56.923Z,21.83
2023-07-19T19:58:58.990Z,21.78
2023-07-19T20:09:05.438Z,21.57
2023-07-19T20:14:16.569Z,21.30
2023-07-19T20:24:26.935Z,21.28
2023-07-19T20:30:01.777Z,21.28
2023-07-19T20:34:57.147Z,21.30
2023-07-19T20:39:59.067Z,21.30
2023-07-19T20:45:00.653Z,21.22
2023-07-19T20:50:03.654Z,21.26
2023-07-19T20:55:05.998Z,21.27
2023-07-19T21:00:08.266Z,21.12
2023-07-19T21:05:09.761Z,21.05
2023-07-19T21:10:11.486Z,20.90
2023-07-19T21:15:13.278Z,20.76
2023-07-19T21:20:14.943Z,20.70
2023-07-19T21:25:18.144Z,20.77
2023-07-19T21:30:19.789Z,20.74
2023-07-19T21:35:21.408Z,20.61
2023-07-19T21:40:23.113Z,20.48
2023-07-19T21:45:25.176Z,20.41
2023-07-19T21:50:26.933Z,20.32
2023-07-19T21:55:28.621Z,20.30
2023-07-19T22:00:41.594Z,20.21
2023-07-19T22:05:45.290Z,20.33
2023-07-19T22:10:47.858Z,20.13
2023-07-19T22:15:49.849Z,20.07
2023-07-19T22:21:01.060Z,19.81
2023-07-19T22:26:09.330Z,19.77
2023-07-19T22:31:10.960Z,19.90
2023-07-19T22:36:12.519Z,19.91
2023-07-19T22:41:15.556Z,19.92
2023-07-19T22:46:19.691Z,19.64
2023-07-19T22:51:22.527Z,19.74
2023-07-19T22:56:24.679Z,19.66
2023-07-19T23:01:26.419Z,19.43
2023-07-19T23:06:28.286Z,19.38
2023-07-19T23:11:29.940Z,19.41
2023-07-19T23:16:31.925Z,19.44
2023-07-19T23:21:33.525Z,19.44
2023-07-19T23:26:35.077Z,19.30
2023-07-19T23:31:36.572Z,19.32
2023-07-19T23:36:38.617Z,19.27
2023-07-19T23:41:40.325Z,19.29
2023-07-19T23:46:42.201Z,19.36
2023-07-19T23:51:43.825Z,19.40
2023-07-19T23:56:45.460Z,19.17
